createdAt,value
2022-11-12T00:00:28.243Z,4.63
2022-11-12T00:03:14.449Z,4.63
2022-11-12T00:06:00.793Z,4.62
2022-11-12T00:26:01.716Z,4.88
2022-11-12T00:28:48.395Z,4.88
2022-11-12T00:31:34.864Z,4.40
2022-11-12T00:34:21.235Z,4.41
2022-11-12T00:37:07.456Z,4.54
2022-11-12T00:39:54.328Z,4.13
2022-11-12T00:42:40.441Z,4.44
2022-11-12T00:45:27.089Z,4.36
2022-11-12T01:10:37.681Z,5.45
2022-11-12T01:13:24.444Z,5.45
2022-11-12T01:16:19.984Z,4.82
2022-11-12T01:19:08.310Z,4.83
2022-11-12T01:21:54.338Z,4.77
2022-11-12T01:24:40.783Z,4.79
2022-11-12T01:27:27.042Z,4.87
2022-11-12T01:30:20.072Z,4.93
2022-11-12T01:50:06.136Z,5.90
2022-11-12T01:52:58.079Z,5.90
2022-11-12T01:55:44.874Z,5.23
2022-11-12T01:58:33.611Z,5.23
2022-11-12T02:01:19.853Z,5.20
2022-11-12T02:04:06.440Z,5.18
2022-11-12T02:06:56.822Z,5.20
2022-11-12T02:26:55.634Z,5.67
2022-11-12T02:29:46.569Z,5.67
2022-11-12T02:32:33.294Z,4.96
2022-11-12T02:35:19.535Z,4.89
2022-11-12T02:38:07.248Z,4.84
2022-11-12T02:40:53.851Z,4.71
2022-11-12T02:43:40.763Z,4.47
2022-11-12T03:08:47.751Z,5.12
2022-11-12T03:11:34.445Z,5.12
2022-11-12T03:14:20.902Z,4.38
2022-11-12T03:17:06.864Z,4.43
2022-11-12T03:19:52.934Z,4.39
2022-11-12T03:22:39.890Z,4.39
2022-11-12T03:25:27.870Z,4.35
2022-11-12T03:50:37.524Z,5.78
2022-11-12T03:53:24.457Z,5.78
2022-11-12T03:56:10.592Z,5.19
2022-11-12T03:58:57.218Z,5.23
2022-11-12T04:01:43.968Z,5.24
2022-11-12T04:04:49.844Z,5.21
2022-11-12T04:22:39.825Z,5.25
2022-11-12T04:25:45.110Z,5.28
2022-11-12T04:28:31.394Z,5.30
2022-11-12T04:31:17.522Z,5.28
2022-11-12T04:34:39.626Z,5.31
2022-11-12T04:57:39.544Z,5.95
2022-11-12T05:00:26.457Z,5.95
2022-11-12T05:03:12.715Z,5.45
2022-11-12T05:06:29.276Z,5.61
2022-11-12T05:09:16.046Z,5.67
2022-11-12T05:12:02.531Z,5.52
2022-11-12T05:37:13.741Z,5.52
2022-11-12T05:40:01.100Z,5.52
2022-11-12T05:42:47.568Z,5.02
2022-11-12T05:45:33.997Z,5.08
2022-11-12T05:48:24.460Z,5.08
2022-11-12T05:51:14.089Z,5.09
2022-11-12T05:54:01.670Z,5.20
2022-11-12T06:15:54.074Z,5.51
2022-11-12T06:18:41.211Z,5.49
2022-11-12T06:21:28.038Z,5.44
2022-11-12T06:24:15.429Z,5.59
2022-11-12T06:27:01.838Z,5.63
2022-11-12T06:29:48.332Z,5.38
2022-11-12T06:32:34.589Z,5.61
2022-11-12T06:35:20.790Z,5.58
2022-11-12T06:59:55.187Z,6.89
2022-11-12T07:02:41.967Z,6.89
2022-11-12T07:05:27.977Z,6.19
2022-11-12T07:08:14.404Z,6.12
2022-11-12T07:11:00.785Z,6.28
2022-11-12T07:13:47.633Z,6.38
2022-11-12T07:16:34.341Z,6.50
2022-11-12T07:39:28.660Z,7.52
2022-11-12T07:42:15.031Z,7.52
2022-11-12T07:45:01.892Z,6.94
2022-11-12T07:47:48.331Z,6.71
2022-11-12T07:50:34.545Z,7.01
2022-11-12T07:53:21.186Z,7.10
2022-11-12T07:56:07.774Z,7.12
2022-11-12T08:18:16.120Z,8.25
2022-11-12T08:21:05.865Z,8.25
2022-11-12T08:23:52.189Z,7.79
2022-11-12T08:26:38.193Z,7.83
2022-11-12T08:29:24.982Z,8.02
2022-11-12T08:32:11.172Z,8.06
2022-11-12T08:34:57.813Z,7.77
2022-11-12T08:54:36.768Z,8.59
2022-11-12T08:57:23.594Z,8.59
2022-11-12T09:00:14.172Z,8.16
2022-11-12T09:03:01.108Z,8.26
2022-11-12T09:05:48.471Z,8.35
2022-11-12T09:08:36.430Z,8.23
2022-11-12T09:11:22.652Z,8.33
2022-11-12T09:33:34.365Z,9.57
2022-11-12T09:36:21.098Z,9.57
2022-11-12T09:39:07.322Z,8.89
2022-11-12T09:41:57.819Z,8.88
2022-11-12T09:45:12.691Z,9.17
2022-11-12T09:48:12.514Z,9.11
2022-11-12T09:51:03.027Z,9.59
2022-11-12T10:14:56.021Z,10.79
2022-11-12T10:18:16.263Z,10.79
2022-11-12T10:21:09.061Z,10.22
2022-11-12T10:23:56.884Z,10.54
2022-11-12T10:26:43.547Z,10.16
2022-11-12T10:29:55.171Z,10.59
2022-11-12T10:52:28.505Z,11.31
2022-11-12T10:55:18.978Z,11.31
2022-11-12T10:58:11.810Z,10.61
2022-11-12T11:01:04.212Z,10.72
2022-11-12T11:03:58.262Z,10.83
2022-11-12T11:06:44.819Z,10.88
2022-11-12T11:09:32.678Z,10.88
2022-11-12T11:33:48.310Z,11.57
2022-11-12T11:36:55.609Z,11.57
2022-11-12T11:39:49.014Z,10.69
2022-11-12T11:42:59.918Z,11.06
2022-11-12T11:46:01.580Z,11.14
2022-11-12T11:49:00.428Z,10.88
2022-11-12T12:16:52.091Z,12.11
2022-11-12T12:20:01.118Z,12.11
2022-11-12T12:22:53.208Z,11.22
2022-11-12T12:25:42.377Z,11.31
2022-11-12T12:28:41.578Z,11.55
2022-11-12T12:31:33.977Z,11.10
2022-11-12T12:52:03.650Z,12.22
2022-11-12T12:54:50.688Z,12.22
2022-11-12T12:57:40.550Z,11.53
2022-11-12T13:00:32.306Z,11.55
2022-11-12T13:03:43.814Z,11.20
2022-11-12T13:06:40.065Z,11.44
2022-11-12T13:09:28.549Z,11.25
2022-11-12T13:12:25.275Z,11.16
2022-11-12T13:35:23.843Z,12.11
2022-11-12T13:38:15.467Z,12.11
2022-11-12T13:41:43.572Z,11.31
2022-11-12T13:44:31.541Z,11.25
2022-11-12T13:47:24.672Z,11.16
2022-11-12T13:50:18.187Z,11.08
2022-11-12T14:14:18.000Z,11.82
2022-11-12T14:17:25.348Z,11.82
2022-11-12T14:20:32.288Z,11.16
2022-11-12T14:23:25.209Z,11.12
2022-11-12T14:26:13.479Z,11.00
2022-11-12T14:29:00.237Z,11.01
2022-11-12T14:31:47.088Z,11.07
2022-11-12T14:34:34.726Z,11.04
2022-11-12T14:37:43.660Z,10.93
2022-11-12T15:03:32.611Z,11.25
2022-11-12T15:06:40.421Z,11.25
2022-11-12T15:09:36.555Z,10.53
2022-11-12T15:12:31.814Z,10.52
2022-11-12T15:15:23.831Z,10.47
2022-11-12T15:18:22.088Z,10.47
2022-11-12T15:21:21.415Z,10.42
2022-11-12T15:42:46.133Z,10.97
2022-11-12T15:45:32.719Z,10.97
2022-11-12T15:48:19.368Z,10.18
2022-11-12T15:51:12.226Z,10.05
2022-11-12T15:53:58.767Z,9.96
2022-11-12T15:56:45.119Z,9.79
2022-11-12T15:59:32.013Z,9.67
2022-11-12T16:02:31.845Z,9.56
2022-11-12T16:21:45.793Z,9.65
2022-11-12T16:24:32.606Z,9.65
2022-11-12T16:27:20.579Z,8.93
2022-11-12T16:30:17.821Z,8.85
2022-11-12T16:33:03.921Z,8.79
2022-11-12T16:35:50.073Z,8.73
2022-11-12T16:38:36.284Z,8.67
2022-11-12T16:41:22.824Z,8.58
2022-11-12T17:03:32.328Z,8.84
2022-11-12T17:06:19.595Z,8.84
2022-11-12T17:09:07.505Z,8.10
2022-11-12T17:11:55.814Z,8.02
2022-11-12T17:14:41.953Z,8.00
2022-11-12T17:17:28.612Z,7.89
2022-11-12T17:20:15.443Z,7.83
2022-11-12T17:23:02.006Z,7.67
2022-11-12T17:25:48.789Z,7.74
2022-11-12T17:50:38.593Z,7.96
2022-11-12T17:53:25.837Z,7.96
2022-11-12T17:56:14.567Z,7.22
2022-11-12T17:59:02.517Z,7.23
2022-11-12T18:01:48.631Z,7.24
2022-11-12T18:04:35.288Z,7.20
2022-11-12T18:07:21.707Z,7.16
2022-11-12T18:32:19.430Z,7.49
2022-11-12T18:35:06.402Z,7.49
2022-11-12T18:37:53.009Z,6.79
2022-11-12T18:40:39.245Z,6.73
2022-11-12T18:43:25.692Z,6.70
2022-11-12T18:46:12.288Z,6.66
2022-11-12T18:48:58.261Z,6.66
2022-11-12T18:51:45.311Z,6.65
2022-11-12T19:13:54.880Z,7.51
2022-11-12T19:16:42.753Z,7.51
2022-11-12T19:19:29.714Z,6.88
2022-11-12T19:22:16.265Z,6.87
2022-11-12T19:25:03.192Z,6.89
2022-11-12T19:27:49.439Z,6.79
2022-11-12T19:30:35.971Z,6.74
2022-11-12T19:52:44.081Z,7.09
2022-11-12T19:55:34.577Z,7.09
2022-11-12T19:58:24.965Z,6.40
2022-11-12T20:01:14.362Z,6.33
2022-11-12T20:04:00.838Z,6.26
2022-11-12T20:06:47.398Z,6.29
2022-11-12T20:09:33.653Z,6.27
2022-11-12T20:34:43.142Z,6.88
2022-11-12T20:37:30.411Z,6.88
2022-11-12T20:40:17.507Z,6.22
2022-11-12T20:43:03.972Z,6.18
2022-11-12T20:45:52.097Z,6.11
2022-11-12T20:48:43.252Z,6.07
2022-11-12T20:51:30.383Z,6.01
2022-11-12T21:16:23.728Z,5.64
2022-11-12T21:19:10.226Z,5.53
2022-11-12T21:21:56.685Z,5.48
2022-11-12T21:24:43.363Z,5.39
2022-11-12T21:27:29.362Z,5.33
2022-11-12T21:30:15.954Z,5.26
2022-11-12T21:55:37.011Z,5.52
2022-11-12T21:58:23.642Z,5.52
2022-11-12T22:01:13.962Z,4.82
2022-11-12T22:04:00.452Z,4.69
2022-11-12T22:06:46.919Z,4.72
2022-11-12T22:09:33.973Z,4.69
2022-11-12T22:12:20.097Z,4.71
2022-11-12T22:15:07.638Z,4.62
2022-11-12T22:37:43.751Z,5.12
2022-11-12T22:40:30.835Z,5.12
2022-11-12T22:43:17.052Z,4.42
2022-11-12T22:46:15.071Z,4.35
2022-11-12T22:49:02.725Z,4.36
2022-11-12T22:51:48.701Z,4.39
2022-11-12T22:54:34.834Z,4.54
2022-11-12T23:19:51.611Z,5.12
2022-11-12T23:22:38.662Z,5.12
2022-11-12T23:25:25.075Z,4.49
2022-11-12T23:28:12.118Z,4.52
2022-11-12T23:30:58.756Z,4.53
2022-11-12T23:33:49.384Z,4.52
2022-11-12T23:36:35.656Z,4.58
2022-11-12T23:39:22.153Z,4.50
2022-11-12T23:42:08.607Z,4.63
